Evelyn Maersk — OXHV2 — position and weather

sailwx.info

Track history (hours):
 
Tides and Currents Weather Stations Pressure Air Temp Water Temp Dewpoint Dewpoint Depression Visibility Wind Speed Wind Dir Waves Ship Positions

Evelyn Maersk

Last reported at 2014-Dec-18 10:04 UTC. Time now 2014-Dec-22 01:21 UTC.
Position N 36°22' E 014°29'.

Length 398 m; draft 12.1 m.

Type: Cargo ship. MMSI: 220496000.

Date/timePositionNaut miles runAvg speedWind from/ knotsBaromVisibWave heightAir tempDewpointWater temp
2014-Dec-18 10:04N 36°22' E 014°29'918.5
2014-Dec-18 09:33N 36°24' E 014°18'1918.9
2014-Dec-18 08:34N 36°30' E 013°56'  
2014-Dec-16 04:33N 35°59' W 005°13'18518.0
2014-Dec-15 18:16N 36°30' W 008°58'8116.4
2014-Dec-15 13:18N 37°41' W 009°48'1517.7
2014-Dec-15 12:28N 37°55' W 009°52'2018.0
2014-Dec-15 11:21N 38°15' W 009°57'1418.2
2014-Dec-15 10:34N 38°29' W 010°02'1818.3
2014-Dec-15 09:33N 38°47' W 010°07'1818.0
2014-Dec-15 08:32N 39°05' W 010°06'72116.7
2014-Dec-13 13:26N 49°60' W 003°01'3416.3
2014-Dec-13 11:20N 50°09' W 002°10'2916.2
2014-Dec-13 09:33N 50°17' W 001°27'1817.9
2014-Dec-13 08:31N 50°22' W 000°59'1918.9
2014-Dec-13 07:32N 50°26' W 000°30'1918.7
2014-Dec-13 06:31N 50°29' W 000°01'1818.6
2014-Dec-13 05:34N 50°35' E 000°25'1817.7
2014-Dec-13 04:34N 50°43' E 000°50'1716.9
2014-Dec-13 03:34N 50°54' E 001°11'1616.4
2014-Dec-13 02:34N 51°05' E 001°31'1716.9
2014-Dec-13 01:34N 51°18' E 001°48'1717.0
2014-Dec-13 00:34N 51°35' E 001°47'1716.8
2014-Dec-12 23:34N 51°51' E 001°38'1110.7
2014-Dec-12 22:34N 51°42' E 001°28'1515.0
2014-Dec-12 21:33N 51°33' E 001°09'1414.3
2014-Dec-12 20:33N 51°29' E 000°47'1110.9
2014-Dec-12 19:33N 51°30' E 000°30'0 0.1
2014-Dec-12 18:33N 51°30' E 000°30'0 0.0
2014-Dec-12 17:32N 51°30' E 000°30'0 0.0
2014-Dec-12 16:32N 51°30' E 000°30'0 0.0
2014-Dec-12 15:32N 51°30' E 000°30'0 0.0
2014-Dec-12 14:32N 51°30' E 000°30'0 0.0
2014-Dec-12 13:32N 51°30' E 000°30'0 0.0
2014-Dec-12 12:32N 51°30' E 000°30'0 0.0
2014-Dec-12 11:32N 51°30' E 000°30'0 0.3
2014-Dec-12 10:34N 51°30' E 000°30'6 6.0
2014-Dec-12 09:33N 51°30' E 000°40'1212.2
2014-Dec-12 08:33N 51°29' E 000°59'1212.4
2014-Dec-12 07:33N 51°35' E 001°16'1211.6
2014-Dec-12 06:33N 51°44' E 001°30'10 9.6
2014-Dec-12 05:33N 51°52' E 001°39'6 6.5
2014-Dec-12 04:33N 51°49' E 001°48'9 8.9
2014-Dec-12 03:33N 51°40' E 001°49'9 9.5
2014-Dec-12 02:33N 51°32' E 001°56'1010.4
2014-Dec-12 01:33N 51°24' E 002°07'10 9.7
2014-Dec-12 00:33N 51°21' E 002°22'1312.6
2014-Dec-11 23:32N 51°23' E 002°42'1313.5
2014-Dec-11 22:33N 51°25' E 003°03'1514.7
2014-Dec-11 21:33N 51°25' E 003°27'9 9.4
2014-Dec-11 20:33N 51°26' E 003°42'10 9.9
2014-Dec-11 19:33N 51°25' E 003°58'9 8.7
2014-Dec-11 18:34N 51°24' E 004°11'7 6.9
2014-Dec-11 17:34N 51°18' E 004°16'0 0.1
2014-Dec-11 16:32N 51°18' E 004°15'0 0.0
2014-Dec-11 15:32N 51°18' E 004°15'0 0.0
2014-Dec-11 14:32N 51°18' E 004°15'0 0.0
2014-Dec-11 13:32N 51°18' E 004°15'0 0.0
2014-Dec-11 12:32N 51°18' E 004°15'0 0.0
2014-Dec-11 11:32N 51°18' E 004°15'0 0.0
2014-Dec-11 10:32N 51°18' E 004°15'0 0.0
2014-Dec-11 09:32N 51°18' E 004°15'0 0.0
2014-Dec-11 08:32N 51°18' E 004°15'0 0.0
2014-Dec-11 07:32N 51°18' E 004°15'0 0.0
2014-Dec-11 06:32N 51°18' E 004°15'0 0.0
2014-Dec-11 05:32N 51°18' E 004°15'0 0.0
2014-Dec-11 04:32N 51°18' E 004°15'0 0.0
2014-Dec-11 03:32N 51°18' E 004°15'0 0.0
2014-Dec-11 02:32N 51°18' E 004°15'0 0.0
2014-Dec-11 01:32N 51°18' E 004°15'0 0.0
2014-Dec-11 00:32N 51°18' E 004°15'0 0.0
2014-Dec-10 23:32N 51°18' E 004°15'0 0.0
2014-Dec-10 22:32N 51°18' E 004°15'0 0.0
2014-Dec-10 21:29N 51°18' E 004°15'0 0.0
2014-Dec-10 20:32N 51°18' E 004°15'0 0.0
2014-Dec-10 19:32N 51°18' E 004°15'0 0.0
2014-Dec-10 18:32N 51°18' E 004°15'0 0.0
2014-Dec-10 17:32N 51°18' E 004°15'0 0.0
2014-Dec-10 16:32N 51°18' E 004°15'0 0.0
2014-Dec-10 15:32N 51°18' E 004°15'0 0.0
2014-Dec-10 14:29N 51°18' E 004°15'0 0.0
2014-Dec-10 13:32N 51°18' E 004°15'0 0.0
2014-Dec-10 12:33N 51°18' E 004°15'3 2.7
2014-Dec-10 11:34N 51°20' E 004°16'9 9.1
2014-Dec-10 10:34N 51°23' E 004°02'7 7.1
2014-Dec-10 09:33N 51°21' E 003°52'1110.6
2014-Dec-10 08:33N 51°26' E 003°37'1010.0
2014-Dec-10 07:33N 51°24' E 003°21'1313.3
2014-Dec-10 06:34N 51°25' E 002°60'1312.5
2014-Dec-10 05:32N 51°37' E 003°10'1111.3
2014-Dec-10 04:32N 51°47' E 003°16'9 8.5
2014-Dec-10 03:32N 51°55' E 003°20'1313.3
2014-Dec-10 02:34N 52°08' E 003°23'1413.6
2014-Dec-10 01:33N 52°22' E 003°25'1414.1
2014-Dec-10 00:32N 52°36' E 003°30'1414.2
2014-Dec-09 23:33N 52°47' E 003°44'1413.9
2014-Dec-09 22:33N 52°57' E 003°60'1414.2
2014-Dec-09 21:33N 53°06' E 004°17'1414.0
2014-Dec-09 20:32N 53°18' E 004°30'1413.9
2014-Dec-09 19:33N 53°30' E 004°42'1413.6
2014-Dec-09 18:34N 53°35' E 005°03'1615.5
2014-Dec-09 17:33N 53°40' E 005°28'1717.0
2014-Dec-09 16:33N 53°46' E 005°55'1817.8
2014-Dec-09 15:33N 53°51' E 006°24'1817.6
2014-Dec-09 14:33N 53°55' E 006°53'1817.4
2014-Dec-09 13:31N 53°59' E 007°23'1616.6
2014-Dec-09 12:34N 54°01' E 007°50'1414.3
2014-Dec-09 11:33N 54°00' E 008°14'1312.7
2014-Dec-09 10:33N 53°58' E 008°35'1312.6
2014-Dec-09 09:33N 53°51' E 008°53'1515.0
2014-Dec-09 08:33N 53°52' E 009°18'1514.8
2014-Dec-09 07:34N 53°39' E 009°31'1312.5
2014-Dec-09 06:33N 53°33' E 009°50'4 3.7
2014-Dec-09 05:34N 53°32' E 009°55'0 0.0
2014-Dec-09 04:31N 53°32' E 009°55'0 0.0
2014-Dec-09 03:31N 53°32' E 009°55'0 0.0
2014-Dec-09 02:31N 53°32' E 009°55'0 0.0
2014-Dec-09 01:31N 53°32' E 009°55'0 0.0
2014-Dec-09 00:31N 53°32' E 009°55'0 0.0
2014-Dec-08 23:31N 53°32' E 009°55'0 0.0
2014-Dec-08 22:31N 53°32' E 009°55'0 0.0
2014-Dec-08 21:31N 53°32' E 009°55'0 0.0
2014-Dec-08 20:28N 53°32' E 009°55'0 0.0
2014-Dec-08 19:31N 53°32' E 009°55'0 0.0
2014-Dec-08 18:31N 53°32' E 009°55'0 0.0
2014-Dec-08 17:31N 53°32' E 009°55'0 0.0
2014-Dec-08 16:31N 53°32' E 009°55'0 0.0
2014-Dec-08 15:31N 53°32' E 009°55'0 0.0
2014-Dec-08 14:31N 53°32' E 009°55'0 0.0
2014-Dec-08 13:31N 53°32' E 009°55'0 0.0
2014-Dec-08 12:31N 53°32' E 009°55'0 0.0
2014-Dec-08 11:31N 53°32' E 009°55'0 0.0
2014-Dec-08 10:31N 53°32' E 009°55'  
Track history (hours):
 
Tides and Currents Weather Stations Pressure Air Temp Water Temp Dewpoint Dewpoint Depression Visibility Wind Speed Wind Dir Waves Ship Positions

Evelyn Maersk

Last reported at 2014-Dec-18 10:04 UTC. Time now 2014-Dec-22 01:21 UTC.
Position N 36°22' E 014°29'.

Length 398 m; draft 12.1 m.

Type: Cargo ship. MMSI: 220496000.

Date/timePositionNaut miles runAvg speedWind from/ knotsBaromVisibWave heightAir tempDewpointWater temp
2014-Dec-18 10:04N 36°22' E 014°29'918.5
2014-Dec-18 09:33N 36°24' E 014°18'1918.9
2014-Dec-18 08:34N 36°30' E 013°56'  
2014-Dec-16 04:33N 35°59' W 005°13'18518.0
2014-Dec-15 18:16N 36°30' W 008°58'8116.4
2014-Dec-15 13:18N 37°41' W 009°48'1517.7
2014-Dec-15 12:28N 37°55' W 009°52'2018.0
2014-Dec-15 11:21N 38°15' W 009°57'1418.2
2014-Dec-15 10:34N 38°29' W 010°02'1818.3
2014-Dec-15 09:33N 38°47' W 010°07'1818.0
2014-Dec-15 08:32N 39°05' W 010°06'72116.7
2014-Dec-13 13:26N 49°60' W 003°01'3416.3
2014-Dec-13 11:20N 50°09' W 002°10'2916.2
2014-Dec-13 09:33N 50°17' W 001°27'1817.9
2014-Dec-13 08:31N 50°22' W 000°59'1918.9
2014-Dec-13 07:32N 50°26' W 000°30'1918.7
2014-Dec-13 06:31N 50°29' W 000°01'1818.6
2014-Dec-13 05:34N 50°35' E 000°25'1817.7
2014-Dec-13 04:34N 50°43' E 000°50'1716.9
2014-Dec-13 03:34N 50°54' E 001°11'1616.4
2014-Dec-13 02:34N 51°05' E 001°31'1716.9
2014-Dec-13 01:34N 51°18' E 001°48'1717.0
2014-Dec-13 00:34N 51°35' E 001°47'1716.8
2014-Dec-12 23:34N 51°51' E 001°38'1110.7
2014-Dec-12 22:34N 51°42' E 001°28'1515.0
2014-Dec-12 21:33N 51°33' E 001°09'1414.3
2014-Dec-12 20:33N 51°29' E 000°47'1110.9
2014-Dec-12 19:33N 51°30' E 000°30'0 0.1
2014-Dec-12 18:33N 51°30' E 000°30'0 0.0
2014-Dec-12 17:32N 51°30' E 000°30'0 0.0
2014-Dec-12 16:32N 51°30' E 000°30'0 0.0
2014-Dec-12 15:32N 51°30' E 000°30'0 0.0
2014-Dec-12 14:32N 51°30' E 000°30'0 0.0
2014-Dec-12 13:32N 51°30' E 000°30'0 0.0
2014-Dec-12 12:32N 51°30' E 000°30'0 0.0
2014-Dec-12 11:32N 51°30' E 000°30'0 0.3
2014-Dec-12 10:34N 51°30' E 000°30'6 6.0
2014-Dec-12 09:33N 51°30' E 000°40'1212.2
2014-Dec-12 08:33N 51°29' E 000°59'1212.4
2014-Dec-12 07:33N 51°35' E 001°16'1211.6
2014-Dec-12 06:33N 51°44' E 001°30'10 9.6
2014-Dec-12 05:33N 51°52' E 001°39'6 6.5
2014-Dec-12 04:33N 51°49' E 001°48'9 8.9
2014-Dec-12 03:33N 51°40' E 001°49'9 9.5
2014-Dec-12 02:33N 51°32' E 001°56'1010.4
2014-Dec-12 01:33N 51°24' E 002°07'10 9.7
2014-Dec-12 00:33N 51°21' E 002°22'1312.6
2014-Dec-11 23:32N 51°23' E 002°42'1313.5
2014-Dec-11 22:33N 51°25' E 003°03'1514.7
2014-Dec-11 21:33N 51°25' E 003°27'9 9.4
2014-Dec-11 20:33N 51°26' E 003°42'10 9.9
2014-Dec-11 19:33N 51°25' E 003°58'9 8.7
2014-Dec-11 18:34N 51°24' E 004°11'7 6.9
2014-Dec-11 17:34N 51°18' E 004°16'0 0.1
2014-Dec-11 16:32N 51°18' E 004°15'0 0.0
2014-Dec-11 15:32N 51°18' E 004°15'0 0.0
2014-Dec-11 14:32N 51°18' E 004°15'0 0.0
2014-Dec-11 13:32N 51°18' E 004°15'0 0.0
2014-Dec-11 12:32N 51°18' E 004°15'0 0.0
2014-Dec-11 11:32N 51°18' E 004°15'0 0.0
2014-Dec-11 10:32N 51°18' E 004°15'0 0.0
2014-Dec-11 09:32N 51°18' E 004°15'0 0.0
2014-Dec-11 08:32N 51°18' E 004°15'0 0.0
2014-Dec-11 07:32N 51°18' E 004°15'0 0.0
2014-Dec-11 06:32N 51°18' E 004°15'0 0.0
2014-Dec-11 05:32N 51°18' E 004°15'0 0.0
2014-Dec-11 04:32N 51°18' E 004°15'0 0.0
2014-Dec-11 03:32N 51°18' E 004°15'0 0.0
2014-Dec-11 02:32N 51°18' E 004°15'0 0.0
2014-Dec-11 01:32N 51°18' E 004°15'0 0.0
2014-Dec-11 00:32N 51°18' E 004°15'0 0.0
2014-Dec-10 23:32N 51°18' E 004°15'0 0.0
2014-Dec-10 22:32N 51°18' E 004°15'0 0.0
2014-Dec-10 21:29N 51°18' E 004°15'0 0.0
2014-Dec-10 20:32N 51°18' E 004°15'0 0.0
2014-Dec-10 19:32N 51°18' E 004°15'0 0.0
2014-Dec-10 18:32N 51°18' E 004°15'0 0.0
2014-Dec-10 17:32N 51°18' E 004°15'0 0.0
2014-Dec-10 16:32N 51°18' E 004°15'0 0.0
2014-Dec-10 15:32N 51°18' E 004°15'0 0.0
2014-Dec-10 14:29N 51°18' E 004°15'0 0.0
2014-Dec-10 13:32N 51°18' E 004°15'0 0.0
2014-Dec-10 12:33N 51°18' E 004°15'3 2.7
2014-Dec-10 11:34N 51°20' E 004°16'9 9.1
2014-Dec-10 10:34N 51°23' E 004°02'7 7.1
2014-Dec-10 09:33N 51°21' E 003°52'1110.6
2014-Dec-10 08:33N 51°26' E 003°37'1010.0
2014-Dec-10 07:33N 51°24' E 003°21'1313.3
2014-Dec-10 06:34N 51°25' E 002°60'1312.5
2014-Dec-10 05:32N 51°37' E 003°10'1111.3
2014-Dec-10 04:32N 51°47' E 003°16'9 8.5
2014-Dec-10 03:32N 51°55' E 003°20'1313.3
2014-Dec-10 02:34N 52°08' E 003°23'1413.6
2014-Dec-10 01:33N 52°22' E 003°25'1414.1
2014-Dec-10 00:32N 52°36' E 003°30'1414.2
2014-Dec-09 23:33N 52°47' E 003°44'1413.9
2014-Dec-09 22:33N 52°57' E 003°60'1414.2
2014-Dec-09 21:33N 53°06' E 004°17'1414.0
2014-Dec-09 20:32N 53°18' E 004°30'1413.9
2014-Dec-09 19:33N 53°30' E 004°42'1413.6
2014-Dec-09 18:34N 53°35' E 005°03'1615.5
2014-Dec-09 17:33N 53°40' E 005°28'1717.0
2014-Dec-09 16:33N 53°46' E 005°55'1817.8
2014-Dec-09 15:33N 53°51' E 006°24'1817.6
2014-Dec-09 14:33N 53°55' E 006°53'1817.4
2014-Dec-09 13:31N 53°59' E 007°23'1616.6
2014-Dec-09 12:34N 54°01' E 007°50'1414.3
2014-Dec-09 11:33N 54°00' E 008°14'1312.7
2014-Dec-09 10:33N 53°58' E 008°35'1312.6
2014-Dec-09 09:33N 53°51' E 008°53'1515.0
2014-Dec-09 08:33N 53°52' E 009°18'1514.8
2014-Dec-09 07:34N 53°39' E 009°31'1312.5
2014-Dec-09 06:33N 53°33' E 009°50'4 3.7
2014-Dec-09 05:34N 53°32' E 009°55'0 0.0
2014-Dec-09 04:31N 53°32' E 009°55'0 0.0
2014-Dec-09 03:31N 53°32' E 009°55'0 0.0
2014-Dec-09 02:31N 53°32' E 009°55'0 0.0
2014-Dec-09 01:31N 53°32' E 009°55'0 0.0
2014-Dec-09 00:31N 53°32' E 009°55'0 0.0
2014-Dec-08 23:31N 53°32' E 009°55'0 0.0
2014-Dec-08 22:31N 53°32' E 009°55'0 0.0
2014-Dec-08 21:31N 53°32' E 009°55'0 0.0
2014-Dec-08 20:28N 53°32' E 009°55'0 0.0
2014-Dec-08 19:31N 53°32' E 009°55'0 0.0
2014-Dec-08 18:31N 53°32' E 009°55'0 0.0
2014-Dec-08 17:31N 53°32' E 009°55'0 0.0
2014-Dec-08 16:31N 53°32' E 009°55'0 0.0
2014-Dec-08 15:31N 53°32' E 009°55'0 0.0
2014-Dec-08 14:31N 53°32' E 009°55'0 0.0
2014-Dec-08 13:31N 53°32' E 009°55'0 0.0
2014-Dec-08 12:31N 53°32' E 009°55'0 0.0
2014-Dec-08 11:31N 53°32' E 009°55'0 0.0
2014-Dec-08 10:31N 53°32' E 009°55'  

Dump ship's entire track history